createdAt,value
2023-03-25T00:00:28.586Z,97499.00
2023-03-25T00:03:53.254Z,97501.66
2023-03-25T00:07:15.627Z,97492.50
2023-03-25T00:10:37.452Z,97487.19
2023-03-25T00:14:00.391Z,97496.97
2023-03-25T00:17:26.322Z,97474.41
2023-03-25T00:20:52.976Z,97492.00
2023-03-25T00:24:17.807Z,97494.03
2023-03-25T00:28:00.139Z,97493.66
2023-03-25T00:31:22.006Z,97491.00
2023-03-25T00:34:47.513Z,97486.06
2023-03-25T00:38:16.368Z,97493.84
2023-03-25T00:41:45.352Z,97496.34
2023-03-25T00:45:08.918Z,97507.72
2023-03-25T00:48:31.225Z,97504.97
2023-03-25T00:51:56.409Z,97500.22
2023-03-25T00:55:19.988Z,97496.47
2023-03-25T00:58:41.953Z,97512.06
2023-03-25T01:02:06.747Z,97510.97
2023-03-25T01:05:30.521Z,97519.09
2023-03-25T01:08:53.329Z,97516.63
2023-03-25T01:12:19.021Z,97538.44
2023-03-25T01:15:42.763Z,97531.34
2023-03-25T01:19:04.679Z,97517.94
2023-03-25T01:22:26.611Z,97520.13
2023-03-25T01:25:48.529Z,97521.84
2023-03-25T01:29:14.322Z,97513.97
2023-03-25T01:32:38.235Z,97517.69
2023-03-25T01:36:02.136Z,97522.81
2023-03-25T01:39:31.869Z,97524.50
2023-03-25T01:42:53.782Z,97533.88
2023-03-25T01:46:15.685Z,97522.19
2023-03-25T01:49:45.868Z,97520.31
2023-03-25T01:53:10.579Z,97516.97
2023-03-25T01:56:39.862Z,97522.28
2023-03-25T02:00:02.191Z,97498.88
2023-03-25T02:03:38.905Z,97523.09
2023-03-25T02:07:03.140Z,97511.16
2023-03-25T02:10:25.522Z,97517.81
2023-03-25T02:13:52.535Z,97515.59
2023-03-25T02:18:13.322Z,97513.88
2023-03-25T02:22:14.666Z,97521.84
2023-03-25T02:25:56.229Z,97520.41
2023-03-25T02:29:59.003Z,97514.09
2023-03-25T02:34:01.872Z,97514.41
2023-03-25T02:38:00.998Z,97509.00
2023-03-25T02:41:58.634Z,97511.81
2023-03-25T02:45:34.410Z,97516.06
2023-03-25T02:49:36.216Z,97519.03
2023-03-25T02:53:06.070Z,97511.66
2023-03-25T02:56:32.833Z,97508.34
2023-03-25T02:59:58.294Z,97489.13
2023-03-25T03:03:22.331Z,97507.44
2023-03-25T03:06:44.715Z,97500.56
2023-03-25T03:10:19.376Z,97492.44
2023-03-25T03:14:24.268Z,97496.84
2023-03-25T03:18:52.075Z,97497.75
2023-03-25T03:22:37.236Z,97490.94
2023-03-25T03:36:07.819Z,97504.34
2023-03-25T03:39:36.545Z,97499.88
2023-03-25T03:44:05.158Z,97505.91
2023-03-25T03:47:36.556Z,97525.59
2023-03-25T03:51:11.609Z,97512.81
2023-03-25T03:55:08.753Z,97522.44
2023-03-25T03:58:59.306Z,97511.47
2023-03-25T04:02:47.760Z,97541.34
2023-03-25T04:07:11.206Z,97523.56
2023-03-25T04:10:52.571Z,97525.28
2023-03-25T04:14:16.901Z,97524.38
2023-03-25T04:17:40.953Z,97523.44
2023-03-25T04:21:03.693Z,97534.50
2023-03-25T04:24:26.614Z,97526.63
2023-03-25T04:27:53.531Z,97530.75
2023-03-25T04:31:17.669Z,97542.19
2023-03-25T04:34:40.054Z,97543.25
2023-03-25T04:38:01.910Z,97541.13
2023-03-25T04:41:24.088Z,97537.38
2023-03-25T04:44:47.186Z,97547.25
2023-03-25T04:48:23.992Z,97557.72
2023-03-25T04:51:45.900Z,97533.38
2023-03-25T04:55:09.611Z,97541.47
2023-03-25T04:58:32.171Z,97547.94
2023-03-25T05:01:54.392Z,97556.66
2023-03-25T05:05:20.158Z,97552.63
2023-03-25T05:08:42.036Z,97556.53
2023-03-25T05:12:04.010Z,97559.78
2023-03-25T05:15:26.447Z,97557.97
2023-03-25T05:18:48.560Z,97574.09
2023-03-25T05:22:10.867Z,97554.75
2023-03-25T05:25:34.398Z,97551.84
2023-03-25T05:28:56.636Z,97559.19
2023-03-25T05:32:18.621Z,97556.44
2023-03-25T05:35:43.649Z,97563.13
2023-03-25T05:39:06.486Z,97544.56
2023-03-25T05:42:28.358Z,97562.03
2023-03-25T05:45:50.404Z,97559.53
2023-03-25T05:49:13.445Z,97566.25
2023-03-25T05:52:36.948Z,97547.38
2023-03-25T05:55:59.578Z,97544.41
2023-03-25T05:59:25.449Z,97560.69
2023-03-25T06:02:49.300Z,97569.09
2023-03-25T06:06:18.508Z,97558.47
2023-03-25T06:09:46.102Z,97560.16
2023-03-25T06:13:08.978Z,97560.16
2023-03-25T06:20:21.064Z,97544.97
2023-03-25T06:23:50.118Z,97539.00
2023-03-25T06:27:19.052Z,97547.53
2023-03-25T06:30:41.848Z,97546.59
2023-03-25T06:34:03.741Z,97531.84
2023-03-25T06:37:26.382Z,97530.50
2023-03-25T06:40:52.675Z,97532.28
2023-03-25T06:44:16.796Z,97531.63
2023-03-25T06:48:07.069Z,97526.72
2023-03-25T06:51:38.745Z,97518.75
2023-03-25T06:55:02.802Z,97525.59
2023-03-25T06:58:35.218Z,97535.53
2023-03-25T07:02:00.586Z,97509.91
2023-03-25T07:05:25.412Z,97517.06
2023-03-25T07:09:00.229Z,97518.75
2023-03-25T07:12:28.031Z,97519.53
2023-03-25T07:15:56.263Z,97523.56
2023-03-25T07:19:21.176Z,97515.09
2023-03-25T07:22:42.963Z,97529.00
2023-03-25T07:26:06.142Z,97506.19
2023-03-25T07:29:29.012Z,97520.09
2023-03-25T07:32:52.044Z,97518.97
2023-03-25T07:36:14.387Z,97529.13
2023-03-25T07:39:38.317Z,97510.34
2023-03-25T07:43:03.596Z,97524.25
2023-03-25T07:46:31.895Z,97520.03
2023-03-25T07:50:05.034Z,97535.06
2023-03-25T07:53:38.888Z,97540.78
2023-03-25T07:57:08.559Z,97545.78
2023-03-25T08:00:32.461Z,97558.09
2023-03-25T08:03:55.450Z,97569.88
2023-03-25T08:07:21.389Z,97569.47
2023-03-25T08:10:48.728Z,97554.75
2023-03-25T08:14:11.696Z,97579.84
2023-03-25T08:17:33.893Z,97581.03
2023-03-25T08:20:55.759Z,97575.88
2023-03-25T08:24:17.839Z,97595.91
2023-03-25T08:27:41.244Z,97571.84
2023-03-25T08:31:08.537Z,97582.91
2023-03-25T08:34:34.554Z,97585.44
2023-03-25T08:38:01.242Z,97592.84
2023-03-25T08:41:34.801Z,97611.78
2023-03-25T08:45:05.505Z,97602.47
2023-03-25T08:48:27.331Z,97596.22
2023-03-25T08:51:50.312Z,97635.44
2023-03-25T08:55:16.028Z,97632.69
2023-03-25T08:58:38.070Z,97649.16
2023-03-25T09:02:01.637Z,97649.03
2023-03-25T09:05:26.762Z,97640.63
2023-03-25T09:08:50.460Z,97654.22
2023-03-25T09:12:28.455Z,97646.63
2023-03-25T09:15:51.643Z,97661.72
2023-03-25T09:19:14.665Z,97656.97
2023-03-25T09:22:41.348Z,97641.44
2023-03-25T09:26:07.457Z,97659.53
2023-03-25T09:29:29.605Z,97653.16
2023-03-25T09:32:53.377Z,97660.38
2023-03-25T09:36:17.330Z,97644.84
2023-03-25T09:39:40.261Z,97659.91
2023-03-25T09:43:26.178Z,97651.19
2023-03-25T09:46:49.227Z,97651.50
2023-03-25T09:50:16.150Z,97644.34
2023-03-25T09:54:31.490Z,97667.38
2023-03-25T09:58:05.142Z,97656.19
2023-03-25T10:01:44.574Z,97667.50
2023-03-25T10:05:51.005Z,97676.00
2023-03-25T10:09:31.146Z,97667.19
2023-03-25T10:13:19.771Z,97671.09
2023-03-25T10:17:02.994Z,97686.94
2023-03-25T10:20:55.820Z,97693.28
2023-03-25T10:24:44.892Z,97695.34
2023-03-25T10:28:16.237Z,97687.94
2023-03-25T10:32:04.455Z,97698.72
2023-03-25T10:35:41.889Z,97683.63
2023-03-25T10:39:20.452Z,97700.06
2023-03-25T10:43:24.329Z,97698.41
2023-03-25T10:46:58.265Z,97700.25
2023-03-25T10:50:21.732Z,97713.00
2023-03-25T10:53:49.993Z,97703.25
2023-03-25T10:57:33.231Z,97691.13
2023-03-25T11:01:36.219Z,97710.91
2023-03-25T11:05:06.434Z,97709.66
2023-03-25T11:08:35.754Z,97738.38
2023-03-25T11:12:02.475Z,97742.78
2023-03-25T11:15:33.391Z,97748.16
2023-03-25T11:19:02.242Z,97745.28
2023-03-25T11:22:33.988Z,97735.25
2023-03-25T11:26:06.673Z,97739.34
2023-03-25T11:29:29.433Z,97728.88
2023-03-25T11:33:06.884Z,97704.13
2023-03-25T11:36:33.027Z,97714.72
2023-03-25T11:39:55.965Z,97732.88
2023-03-25T11:43:23.780Z,97734.03
2023-03-25T11:46:54.461Z,97735.69
2023-03-25T11:50:27.317Z,97743.41
2023-03-25T11:54:01.502Z,97724.03
2023-03-25T11:57:40.341Z,97721.22
2023-03-25T12:01:28.307Z,97738.38
2023-03-25T12:05:07.894Z,97743.53
2023-03-25T12:08:48.117Z,97734.88
2023-03-25T12:12:34.985Z,97737.22
2023-03-25T12:16:07.933Z,97747.81
2023-03-25T12:19:47.948Z,97748.03
2023-03-25T12:23:47.354Z,97731.41
2023-03-25T12:27:49.705Z,97742.94
2023-03-25T12:31:42.455Z,97719.72
2023-03-25T12:35:43.289Z,97720.44
2023-03-25T12:39:51.593Z,97726.53
2023-03-25T12:43:37.465Z,97717.59
2023-03-25T12:47:27.522Z,97708.59
2023-03-25T12:51:18.281Z,97705.25
2023-03-25T12:55:11.051Z,97704.13
2023-03-25T12:59:17.909Z,97702.28
2023-03-25T13:03:07.538Z,97702.56
2023-03-25T13:06:45.926Z,97691.91
2023-03-25T13:10:13.802Z,97676.03
2023-03-25T13:13:40.586Z,97669.94
2023-03-25T13:17:12.848Z,97676.53
2023-03-25T13:20:45.083Z,97664.06
2023-03-25T13:24:30.283Z,97634.22
2023-03-25T13:28:04.065Z,97659.34
2023-03-25T13:31:37.429Z,97645.38
2023-03-25T13:35:13.632Z,97646.03
2023-03-25T13:38:46.993Z,97660.22
2023-03-25T13:42:45.662Z,97657.88
2023-03-25T13:46:17.224Z,97702.19
2023-03-25T13:49:55.877Z,97746.22
2023-03-25T13:53:36.347Z,97732.94
2023-03-25T13:57:24.416Z,97723.25
2023-03-25T14:01:20.843Z,97706.72
2023-03-25T14:05:13.751Z,97705.34
2023-03-25T14:09:38.201Z,97709.44
2023-03-25T14:13:07.322Z,97722.16
2023-03-25T14:16:44.310Z,97722.28
2023-03-25T14:20:10.506Z,97726.72
2023-03-25T14:23:33.581Z,97720.84
2023-03-25T14:27:07.205Z,97710.00
2023-03-25T14:30:31.042Z,97702.59
2023-03-25T14:34:04.628Z,97692.88
2023-03-25T14:37:29.545Z,97687.06
2023-03-25T14:41:02.698Z,97677.88
2023-03-25T14:44:32.840Z,97682.25
2023-03-25T14:47:57.491Z,97677.84
2023-03-25T14:51:30.181Z,97679.94
2023-03-25T14:54:53.252Z,97670.09
2023-03-25T14:58:29.819Z,97652.88
2023-03-25T15:01:52.907Z,97658.81
2023-03-25T15:05:27.223Z,97678.56
2023-03-25T15:08:57.725Z,97670.91
2023-03-25T15:12:25.295Z,97669.78
2023-03-25T15:15:50.198Z,97676.31
2023-03-25T15:19:15.233Z,97668.09
2023-03-25T15:22:38.605Z,97712.75
2023-03-25T15:26:04.738Z,97711.25
2023-03-25T15:30:10.195Z,97715.47
2023-03-25T15:34:04.844Z,97736.72
2023-03-25T15:38:03.021Z,97758.03
2023-03-25T15:41:43.049Z,97806.19
2023-03-25T15:45:54.892Z,97811.28
2023-03-25T15:50:03.751Z,97815.50
2023-03-25T15:54:15.645Z,97812.78
2023-03-25T15:57:44.256Z,97779.09
2023-03-25T16:01:33.578Z,97716.25
2023-03-25T16:04:56.296Z,97731.50
2023-03-25T16:08:32.640Z,97734.88
2023-03-25T16:12:02.144Z,97743.13
2023-03-25T16:15:31.494Z,97749.31
2023-03-25T16:18:56.107Z,97750.78
2023-03-25T16:22:29.366Z,97745.66
2023-03-25T16:25:53.439Z,97734.03
2023-03-25T16:29:24.323Z,97740.53
2023-03-25T16:32:48.688Z,97751.34
2023-03-25T16:36:19.651Z,97760.91
2023-03-25T16:39:58.989Z,97739.47
2023-03-25T16:43:27.188Z,97745.31
2023-03-25T16:46:54.380Z,97745.00
2023-03-25T16:50:19.718Z,97741.13
2023-03-25T16:53:42.746Z,97747.13
2023-03-25T16:57:14.972Z,97761.38
2023-03-25T17:00:51.813Z,97763.63
2023-03-25T17:04:22.692Z,97759.59
2023-03-25T17:07:49.485Z,97756.03
2023-03-25T17:11:14.451Z,97761.38
2023-03-25T17:14:44.108Z,97765.50
2023-03-25T17:18:18.449Z,97763.59
2023-03-25T17:22:06.513Z,97761.03
2023-03-25T17:25:35.789Z,97760.69
2023-03-25T17:29:06.286Z,97748.19
2023-03-25T17:32:46.527Z,97744.09
2023-03-25T17:36:11.265Z,97755.63
2023-03-25T17:39:34.904Z,97747.31
2023-03-25T17:42:58.834Z,97758.13
2023-03-25T17:46:29.145Z,97756.75
2023-03-25T17:49:52.345Z,97743.84
2023-03-25T17:53:15.303Z,97752.78
2023-03-25T17:56:39.624Z,97755.56
2023-03-25T18:00:18.342Z,97778.25
2023-03-25T18:03:41.219Z,97777.53
2023-03-25T18:07:03.221Z,97771.84
2023-03-25T18:10:26.295Z,97789.44
2023-03-25T18:13:49.269Z,97789.59
2023-03-25T18:17:15.746Z,97790.47
2023-03-25T18:20:37.779Z,97798.34
2023-03-25T18:24:08.301Z,97794.50
2023-03-25T18:27:40.664Z,97791.59
2023-03-25T18:31:05.976Z,97808.03
2023-03-25T18:34:28.730Z,97829.25
2023-03-25T18:37:51.593Z,97823.88
2023-03-25T18:41:19.856Z,97821.97
2023-03-25T18:44:42.741Z,97816.06
2023-03-25T18:48:05.527Z,97803.25
2023-03-25T18:51:34.267Z,97809.63
2023-03-25T18:54:58.828Z,97793.47
2023-03-25T18:58:26.237Z,97819.16
2023-03-25T19:01:49.207Z,97800.34
2023-03-25T19:05:17.529Z,97820.47
2023-03-25T19:08:43.283Z,97822.28
2023-03-25T19:12:05.567Z,97830.84
2023-03-25T19:15:30.397Z,97832.88
2023-03-25T19:18:52.211Z,97831.22
2023-03-25T19:22:16.334Z,97820.31
2023-03-25T19:25:40.547Z,97815.03
2023-03-25T19:29:12.760Z,97817.28
2023-03-25T19:32:42.666Z,97815.22
2023-03-25T19:36:05.155Z,97821.59
2023-03-25T19:39:29.792Z,97800.69
2023-03-25T19:43:01.342Z,97804.03
2023-03-25T19:46:25.436Z,97801.38
2023-03-25T19:49:47.345Z,97801.53
2023-03-25T19:53:11.507Z,97802.66
2023-03-25T19:56:33.570Z,97799.19
2023-03-25T19:59:56.486Z,97810.06
2023-03-25T20:03:22.525Z,97804.47
2023-03-25T20:06:46.165Z,97807.84
2023-03-25T20:10:19.922Z,97819.56
2023-03-25T20:13:42.303Z,97831.09
2023-03-25T20:17:04.536Z,97821.91
2023-03-25T20:20:27.579Z,97823.97
2023-03-25T20:23:49.428Z,97816.75
2023-03-25T20:27:17.353Z,97826.38
2023-03-25T20:30:40.242Z,97818.69
2023-03-25T20:34:02.067Z,97812.84
2023-03-25T20:37:28.963Z,97814.91
2023-03-25T20:40:54.468Z,97807.00
2023-03-25T20:44:17.413Z,97815.75
2023-03-25T20:47:39.784Z,97809.34
2023-03-25T20:51:10.096Z,97815.91
2023-03-25T20:54:42.768Z,97814.78
2023-03-25T20:58:08.379Z,97814.38
2023-03-25T21:01:30.297Z,97801.94
2023-03-25T21:04:58.501Z,97814.63
2023-03-25T21:08:22.178Z,97809.91
2023-03-25T21:11:46.663Z,97803.47
2023-03-25T21:15:09.746Z,97798.31
2023-03-25T21:18:31.832Z,97793.13
2023-03-25T21:21:58.902Z,97806.63
2023-03-25T21:25:21.220Z,97809.41
2023-03-25T21:28:45.310Z,97796.56
2023-03-25T21:32:11.144Z,97800.16
2023-03-25T21:35:33.568Z,97798.25
2023-03-25T21:39:02.289Z,97797.97
2023-03-25T21:42:31.268Z,97797.03
2023-03-25T21:45:55.245Z,97794.41
2023-03-25T21:49:22.191Z,97786.06
2023-03-25T21:52:47.933Z,97788.88
2023-03-25T21:56:17.443Z,97798.75
2023-03-25T21:59:40.258Z,97800.72
2023-03-25T22:03:13.139Z,97800.56
2023-03-25T22:06:37.085Z,97787.97
2023-03-25T22:10:00.894Z,97796.88
2023-03-25T22:13:24.784Z,97794.91
2023-03-25T22:16:46.632Z,97793.94
2023-03-25T22:20:10.166Z,97798.09
2023-03-25T22:23:32.174Z,97804.91
2023-03-25T22:26:56.466Z,97806.72
2023-03-25T22:30:38.943Z,97806.88
2023-03-25T22:34:03.629Z,97796.09
2023-03-25T22:37:25.809Z,97788.72
2023-03-25T22:40:47.713Z,97798.47
2023-03-25T22:44:12.182Z,97802.91
2023-03-25T22:47:36.366Z,97793.59
2023-03-25T22:50:59.400Z,97792.94
2023-03-25T22:54:22.070Z,97792.50
2023-03-25T23:02:07.400Z,97773.72
2023-03-25T23:05:36.418Z,97800.50
2023-03-25T23:09:08.644Z,97790.91
2023-03-25T23:12:30.725Z,97788.63
2023-03-25T23:16:15.215Z,97777.41
2023-03-25T23:19:39.997Z,97784.03
2023-03-25T23:23:02.659Z,97792.16
2023-03-25T23:26:29.955Z,97781.00
2023-03-25T23:29:51.885Z,97781.53
2023-03-25T23:33:13.680Z,97785.44
2023-03-25T23:36:39.303Z,97775.34
2023-03-25T23:40:02.294Z,97766.84
2023-03-25T23:43:32.287Z,97764.06
2023-03-25T23:46:58.453Z,97760.28
2023-03-25T23:50:21.371Z,97756.13
2023-03-25T23:53:46.860Z,97752.66
2023-03-25T23:57:09.836Z,97747.47
